sensor_id;sensor_type;location;lat;lon;timestamp;temperature;humidity
7202;DHT22;3642;52.506;13.304;2022-07-10T00:01:04;16.90;99.90
7202;DHT22;3642;52.506;13.304;2022-07-10T00:03:34;16.90;99.90
7202;DHT22;3642;52.506;13.304;2022-07-10T00:06:02;17.00;99.90
7202;DHT22;3642;52.506;13.304;2022-07-10T00:08:31;17.00;99.90
7202;DHT22;3642;52.506;13.304;2022-07-10T00:10:59;17.10;99.90
7202;DHT22;3642;52.506;13.304;2022-07-10T00:13:27;17.10;99.90
7202;DHT22;3642;52.506;13.304;2022-07-10T00:15:55;17.10;99.90
7202;DHT22;3642;52.506;13.304;2022-07-10T00:18:23;17.00;99.90
7202;DHT22;3642;52.506;13.304;2022-07-10T00:20:53;16.90;99.90
7202;DHT22;3642;52.506;13.304;2022-07-10T00:23:21;16.90;99.90
7202;DHT22;3642;52.506;13.304;2022-07-10T00:25:53;16.90;99.90
7202;DHT22;3642;52.506;13.304;2022-07-10T00:28:21;16.90;99.90
7202;DHT22;3642;52.506;13.304;2022-07-10T00:30:51;16.80;99.90
7202;DHT22;3642;52.506;13.304;2022-07-10T00:33:19;16.90;99.90
7202;DHT22;3642;52.506;13.304;2022-07-10T00:35:48;16.80;99.90
7202;DHT22;3642;52.506;13.304;2022-07-10T00:38:17;16.80;99.90
7202;DHT22;3642;52.506;13.304;2022-07-10T00:40:45;16.80;99.90
7202;DHT22;3642;52.506;13.304;2022-07-10T00:43:13;16.90;99.90
7202;DHT22;3642;52.506;13.304;2022-07-10T00:45:41;16.80;99.90
7202;DHT22;3642;52.506;13.304;2022-07-10T00:48:10;16.70;99.90
7202;DHT22;3642;52.506;13.304;2022-07-10T00:50:38;16.60;99.90
7202;DHT22;3642;52.506;13.304;2022-07-10T00:53:08;16.60;99.90
7202;DHT22;3642;52.506;13.304;2022-07-10T00:55:39;16.70;99.90
7202;DHT22;3642;52.506;13.304;2022-07-10T00:58:08;16.70;99.90
7202;DHT22;3642;52.506;13.304;2022-07-10T01:00:38;16.70;99.90
7202;DHT22;3642;52.506;13.304;2022-07-10T01:03:07;16.60;99.90
7202;DHT22;3642;52.506;13.304;2022-07-10T01:05:35;16.60;99.90
7202;DHT22;3642;52.506;13.304;2022-07-10T01:08:04;16.70;99.90
7202;DHT22;3642;52.506;13.304;2022-07-10T01:10:32;16.60;99.90
7202;DHT22;3642;52.506;13.304;2022-07-10T01:13:02;16.70;99.90
7202;DHT22;3642;52.506;13.304;2022-07-10T01:15:31;16.70;99.90
7202;DHT22;3642;52.506;13.304;2022-07-10T01:17:59;16.60;99.90
7202;DHT22;3642;52.506;13.304;2022-07-10T01:20:30;16.60;99.90
7202;DHT22;3642;52.506;13.304;2022-07-10T01:23:00;16.60;99.90
7202;DHT22;3642;52.506;13.304;2022-07-10T01:25:29;16.70;99.90
7202;DHT22;3642;52.506;13.304;2022-07-10T01:27:57;16.70;99.90
7202;DHT22;3642;52.506;13.304;2022-07-10T01:30:25;16.70;99.90
7202;DHT22;3642;52.506;13.304;2022-07-10T01:32:54;16.80;99.90
7202;DHT22;3642;52.506;13.304;2022-07-10T01:35:22;16.70;99.90
7202;DHT22;3642;52.506;13.304;2022-07-10T01:37:50;16.60;99.90
7202;DHT22;3642;52.506;13.304;2022-07-10T01:40:19;16.60;99.90
7202;DHT22;3642;52.506;13.304;2022-07-10T01:42:47;16.60;99.90
7202;DHT22;3642;52.506;13.304;2022-07-10T01:45:16;16.60;99.90
7202;DHT22;3642;52.506;13.304;2022-07-10T01:47:45;16.50;99.90
7202;DHT22;3642;52.506;13.304;2022-07-10T01:50:13;16.40;99.90
7202;DHT22;3642;52.506;13.304;2022-07-10T01:52:41;16.40;99.90
7202;DHT22;3642;52.506;13.304;2022-07-10T01:55:09;16.30;99.90
7202;DHT22;3642;52.506;13.304;2022-07-10T01:57:39;16.30;99.90
7202;DHT22;3642;52.506;13.304;2022-07-10T02:00:08;16.40;99.90
7202;DHT22;3642;52.506;13.304;2022-07-10T02:02:36;16.40;99.90
7202;DHT22;3642;52.506;13.304;2022-07-10T02:05:05;16.50;99.90
7202;DHT22;3642;52.506;13.304;2022-07-10T02:07:32;16.50;99.90
7202;DHT22;3642;52.506;13.304;2022-07-10T02:10:01;16.50;99.90
7202;DHT22;3642;52.506;13.304;2022-07-10T02:12:29;16.50;99.90
7202;DHT22;3642;52.506;13.304;2022-07-10T02:14:59;16.40;99.90
7202;DHT22;3642;52.506;13.304;2022-07-10T02:17:28;16.20;99.90
7202;DHT22;3642;52.506;13.304;2022-07-10T02:19:56;16.30;99.90
7202;DHT22;3642;52.506;13.304;2022-07-10T02:22:24;16.40;99.90
7202;DHT22;3642;52.506;13.304;2022-07-10T02:24:53;16.30;99.90
7202;DHT22;3642;52.506;13.304;2022-07-10T02:27:21;16.30;99.90
7202;DHT22;3642;52.506;13.304;2022-07-10T02:29:50;16.20;99.90
7202;DHT22;3642;52.506;13.304;2022-07-10T02:32:19;16.20;99.90
7202;DHT22;3642;52.506;13.304;2022-07-10T02:34:48;16.20;99.90
7202;DHT22;3642;52.506;13.304;2022-07-10T02:37:17;16.20;99.90
7202;DHT22;3642;52.506;13.304;2022-07-10T02:39:45;16.20;99.90
7202;DHT22;3642;52.506;13.304;2022-07-10T02:42:13;16.30;99.90
7202;DHT22;3642;52.506;13.304;2022-07-10T02:44:41;16.20;99.90
7202;DHT22;3642;52.506;13.304;2022-07-10T02:47:09;16.10;99.90
7202;DHT22;3642;52.506;13.304;2022-07-10T02:49:38;16.00;99.90
7202;DHT22;3642;52.506;13.304;2022-07-10T02:52:07;16.10;99.90
7202;DHT22;3642;52.506;13.304;2022-07-10T02:54:35;16.00;99.90
7202;DHT22;3642;52.506;13.304;2022-07-10T02:57:05;16.00;99.90
7202;DHT22;3642;52.506;13.304;2022-07-10T02:59:33;16.10;99.90
7202;DHT22;3642;52.506;13.304;2022-07-10T03:02:04;16.10;99.90
7202;DHT22;3642;52.506;13.304;2022-07-10T03:04:32;16.20;99.90
7202;DHT22;3642;52.506;13.304;2022-07-10T03:07:02;16.20;99.90
7202;DHT22;3642;52.506;13.304;2022-07-10T03:09:30;16.20;99.90
7202;DHT22;3642;52.506;13.304;2022-07-10T03:11:58;16.20;99.90
7202;DHT22;3642;52.506;13.304;2022-07-10T03:14:27;16.30;99.90
7202;DHT22;3642;52.506;13.304;2022-07-10T03:16:55;16.20;99.90
7202;DHT22;3642;52.506;13.304;2022-07-10T03:19:23;16.20;99.90
7202;DHT22;3642;52.506;13.304;2022-07-10T03:21:51;16.10;99.90
7202;DHT22;3642;52.506;13.304;2022-07-10T03:24:20;16.10;99.90
7202;DHT22;3642;52.506;13.304;2022-07-10T03:26:49;16.10;99.90
7202;DHT22;3642;52.506;13.304;2022-07-10T03:29:17;16.10;99.90
7202;DHT22;3642;52.506;13.304;2022-07-10T03:31:48;16.00;99.90
7202;DHT22;3642;52.506;13.304;2022-07-10T03:34:17;16.00;99.90
7202;DHT22;3642;52.506;13.304;2022-07-10T03:36:45;16.00;99.90
7202;DHT22;3642;52.506;13.304;2022-07-10T03:39:15;16.00;99.90
7202;DHT22;3642;52.506;13.304;2022-07-10T03:41:45;16.10;99.90
7202;DHT22;3642;52.506;13.304;2022-07-10T03:44:13;16.20;99.90
7202;DHT22;3642;52.506;13.304;2022-07-10T03:46:42;16.30;99.90
7202;DHT22;3642;52.506;13.304;2022-07-10T03:49:10;16.30;99.90
7202;DHT22;3642;52.506;13.304;2022-07-10T03:51:38;16.30;99.90
7202;DHT22;3642;52.506;13.304;2022-07-10T03:54:06;16.40;99.90
7202;DHT22;3642;52.506;13.304;2022-07-10T03:56:34;16.40;99.90
7202;DHT22;3642;52.506;13.304;2022-07-10T03:59:24;16.30;99.90
7202;DHT22;3642;52.506;13.304;2022-07-10T04:01:52;16.30;99.90
7202;DHT22;3642;52.506;13.304;2022-07-10T04:04:20;16.10;99.90
7202;DHT22;3642;52.506;13.304;2022-07-10T04:06:48;16.00;99.90
7202;DHT22;3642;52.506;13.304;2022-07-10T04:09:17;16.00;99.90
7202;DHT22;3642;52.506;13.304;2022-07-10T04:11:45;15.90;99.90
7202;DHT22;3642;52.506;13.304;2022-07-10T04:14:13;16.00;99.90
7202;DHT22;3642;52.506;13.304;2022-07-10T04:16:42;15.90;99.90
7202;DHT22;3642;52.506;13.304;2022-07-10T04:19:10;16.00;99.90
7202;DHT22;3642;52.506;13.304;2022-07-10T04:21:38;15.90;99.90
7202;DHT22;3642;52.506;13.304;2022-07-10T04:24:07;15.90;99.90
7202;DHT22;3642;52.506;13.304;2022-07-10T04:26:35;15.90;99.90
7202;DHT22;3642;52.506;13.304;2022-07-10T04:29:03;16.00;99.90
7202;DHT22;3642;52.506;13.304;2022-07-10T04:31:31;16.00;99.90
7202;DHT22;3642;52.506;13.304;2022-07-10T04:34:01;15.90;99.90
7202;DHT22;3642;52.506;13.304;2022-07-10T04:36:29;15.90;99.90
7202;DHT22;3642;52.506;13.304;2022-07-10T04:38:58;15.90;99.90
7202;DHT22;3642;52.506;13.304;2022-07-10T04:41:26;15.90;99.90
7202;DHT22;3642;52.506;13.304;2022-07-10T04:43:54;15.90;99.90
7202;DHT22;3642;52.506;13.304;2022-07-10T04:46:22;15.90;99.90
7202;DHT22;3642;52.506;13.304;2022-07-10T04:48:50;16.00;99.90
7202;DHT22;3642;52.506;13.304;2022-07-10T04:51:20;16.10;99.90
7202;DHT22;3642;52.506;13.304;2022-07-10T04:53:50;16.10;99.90
7202;DHT22;3642;52.506;13.304;2022-07-10T04:56:18;16.10;99.90
7202;DHT22;3642;52.506;13.304;2022-07-10T04:58:46;16.10;99.90
7202;DHT22;3642;52.506;13.304;2022-07-10T05:01:18;16.20;99.90
7202;DHT22;3642;52.506;13.304;2022-07-10T05:03:47;16.20;99.90
7202;DHT22;3642;52.506;13.304;2022-07-10T05:06:15;16.20;99.90
7202;DHT22;3642;52.506;13.304;2022-07-10T05:08:45;16.20;99.90
7202;DHT22;3642;52.506;13.304;2022-07-10T05:11:13;16.30;99.90
7202;DHT22;3642;52.506;13.304;2022-07-10T05:13:41;16.10;99.90
7202;DHT22;3642;52.506;13.304;2022-07-10T05:16:12;16.10;99.90
7202;DHT22;3642;52.506;13.304;2022-07-10T05:18:46;16.10;99.90
7202;DHT22;3642;52.506;13.304;2022-07-10T05:21:14;16.20;99.90
7202;DHT22;3642;52.506;13.304;2022-07-10T05:23:43;16.20;99.90
7202;DHT22;3642;52.506;13.304;2022-07-10T05:26:12;16.20;99.90
7202;DHT22;3642;52.506;13.304;2022-07-10T05:28:40;16.40;99.90
7202;DHT22;3642;52.506;13.304;2022-07-10T05:31:08;16.50;99.90
7202;DHT22;3642;52.506;13.304;2022-07-10T05:33:37;16.60;99.90
7202;DHT22;3642;52.506;13.304;2022-07-10T05:36:07;16.50;99.90
7202;DHT22;3642;52.506;13.304;2022-07-10T05:38:36;16.60;99.90
7202;DHT22;3642;52.506;13.304;2022-07-10T05:41:04;16.60;99.90
7202;DHT22;3642;52.506;13.304;2022-07-10T05:43:34;16.50;99.90
7202;DHT22;3642;52.506;13.304;2022-07-10T05:46:02;16.60;99.90
7202;DHT22;3642;52.506;13.304;2022-07-10T05:48:31;16.40;99.90
7202;DHT22;3642;52.506;13.304;2022-07-10T05:50:59;16.40;99.90
7202;DHT22;3642;52.506;13.304;2022-07-10T05:53:47;16.50;99.90
7202;DHT22;3642;52.506;13.304;2022-07-10T05:56:15;16.60;99.90
7202;DHT22;3642;52.506;13.304;2022-07-10T05:58:45;16.50;99.90
7202;DHT22;3642;52.506;13.304;2022-07-10T06:01:13;16.50;99.90
7202;DHT22;3642;52.506;13.304;2022-07-10T06:03:41;16.50;99.90
7202;DHT22;3642;52.506;13.304;2022-07-10T06:06:10;16.50;99.90
7202;DHT22;3642;52.506;13.304;2022-07-10T06:08:42;16.40;99.90
7202;DHT22;3642;52.506;13.304;2022-07-10T06:11:11;16.40;99.90
7202;DHT22;3642;52.506;13.304;2022-07-10T06:13:39;16.40;99.90
7202;DHT22;3642;52.506;13.304;2022-07-10T06:16:09;16.50;99.90
7202;DHT22;3642;52.506;13.304;2022-07-10T06:18:37;16.60;99.90
7202;DHT22;3642;52.506;13.304;2022-07-10T06:21:05;16.70;99.90
7202;DHT22;3642;52.506;13.304;2022-07-10T06:23:34;16.80;99.90
7202;DHT22;3642;52.506;13.304;2022-07-10T06:26:03;16.80;99.90
7202;DHT22;3642;52.506;13.304;2022-07-10T06:28:34;16.90;99.90
7202;DHT22;3642;52.506;13.304;2022-07-10T06:31:02;16.90;99.90
7202;DHT22;3642;52.506;13.304;2022-07-10T06:33:36;16.80;99.90
7202;DHT22;3642;52.506;13.304;2022-07-10T06:36:05;16.80;99.90
7202;DHT22;3642;52.506;13.304;2022-07-10T06:38:36;16.80;99.90
7202;DHT22;3642;52.506;13.304;2022-07-10T06:41:05;16.90;99.90
7202;DHT22;3642;52.506;13.304;2022-07-10T06:43:33;17.10;99.90
7202;DHT22;3642;52.506;13.304;2022-07-10T06:46:01;17.20;99.90
7202;DHT22;3642;52.506;13.304;2022-07-10T06:48:29;17.30;99.90
7202;DHT22;3642;52.506;13.304;2022-07-10T06:50:58;17.30;99.90
7202;DHT22;3642;52.506;13.304;2022-07-10T06:53:26;17.20;99.90
7202;DHT22;3642;52.506;13.304;2022-07-10T06:55:54;17.20;99.90
7202;DHT22;3642;52.506;13.304;2022-07-10T06:58:22;17.30;99.90
7202;DHT22;3642;52.506;13.304;2022-07-10T07:00:50;17.30;99.90
7202;DHT22;3642;52.506;13.304;2022-07-10T07:03:19;17.20;99.90
7202;DHT22;3642;52.506;13.304;2022-07-10T07:05:47;17.10;99.90
7202;DHT22;3642;52.506;13.304;2022-07-10T07:08:16;17.20;99.90
7202;DHT22;3642;52.506;13.304;2022-07-10T07:10:45;17.40;99.90
7202;DHT22;3642;52.506;13.304;2022-07-10T07:13:13;17.40;99.90
7202;DHT22;3642;52.506;13.304;2022-07-10T07:15:41;17.30;99.90
7202;DHT22;3642;52.506;13.304;2022-07-10T07:18:17;17.30;99.90
7202;DHT22;3642;52.506;13.304;2022-07-10T07:21:05;17.40;99.90
7202;DHT22;3642;52.506;13.304;2022-07-10T07:23:53;17.40;99.90
7202;DHT22;3642;52.506;13.304;2022-07-10T07:26:21;17.40;99.90
7202;DHT22;3642;52.506;13.304;2022-07-10T07:28:49;17.30;99.90
7202;DHT22;3642;52.506;13.304;2022-07-10T07:31:18;17.20;99.90
7202;DHT22;3642;52.506;13.304;2022-07-10T07:33:46;17.00;99.90
7202;DHT22;3642;52.506;13.304;2022-07-10T07:36:15;16.80;99.90
7202;DHT22;3642;52.506;13.304;2022-07-10T07:38:43;16.80;99.90
7202;DHT22;3642;52.506;13.304;2022-07-10T07:41:13;16.80;99.90
7202;DHT22;3642;52.506;13.304;2022-07-10T07:43:42;16.80;99.90
7202;DHT22;3642;52.506;13.304;2022-07-10T07:46:10;17.00;99.90
7202;DHT22;3642;52.506;13.304;2022-07-10T07:48:38;17.10;99.90
7202;DHT22;3642;52.506;13.304;2022-07-10T07:51:08;17.30;99.90
7202;DHT22;3642;52.506;13.304;2022-07-10T07:53:37;17.60;99.90
7202;DHT22;3642;52.506;13.304;2022-07-10T07:56:05;17.70;99.90
7202;DHT22;3642;52.506;13.304;2022-07-10T07:58:35;17.70;99.90
7202;DHT22;3642;52.506;13.304;2022-07-10T08:01:04;17.90;99.90
7202;DHT22;3642;52.506;13.304;2022-07-10T08:03:32;17.90;99.90
7202;DHT22;3642;52.506;13.304;2022-07-10T08:06:22;17.80;99.90
7202;DHT22;3642;52.506;13.304;2022-07-10T08:08:51;17.70;99.90
7202;DHT22;3642;52.506;13.304;2022-07-10T08:11:22;17.70;99.90
7202;DHT22;3642;52.506;13.304;2022-07-10T08:13:52;17.50;99.90
7202;DHT22;3642;52.506;13.304;2022-07-10T08:16:20;17.40;99.90
7202;DHT22;3642;52.506;13.304;2022-07-10T08:18:48;17.50;99.90
7202;DHT22;3642;52.506;13.304;2022-07-10T08:21:17;17.50;99.90
7202;DHT22;3642;52.506;13.304;2022-07-10T08:23:46;17.60;99.90
7202;DHT22;3642;52.506;13.304;2022-07-10T08:26:14;17.60;99.90
7202;DHT22;3642;52.506;13.304;2022-07-10T08:28:42;17.70;99.90
7202;DHT22;3642;52.506;13.304;2022-07-10T08:31:12;17.70;99.90
7202;DHT22;3642;52.506;13.304;2022-07-10T08:33:42;17.80;99.90
7202;DHT22;3642;52.506;13.304;2022-07-10T08:36:10;17.80;99.90
7202;DHT22;3642;52.506;13.304;2022-07-10T08:38:58;17.70;99.90
7202;DHT22;3642;52.506;13.304;2022-07-10T08:41:27;17.80;99.90
7202;DHT22;3642;52.506;13.304;2022-07-10T08:43:55;17.80;99.90
7202;DHT22;3642;52.506;13.304;2022-07-10T08:46:24;17.80;99.90
7202;DHT22;3642;52.506;13.304;2022-07-10T08:48:54;17.90;99.90
7202;DHT22;3642;52.506;13.304;2022-07-10T08:51:36;17.90;99.90
7202;DHT22;3642;52.506;13.304;2022-07-10T08:54:08;17.90;99.90
7202;DHT22;3642;52.506;13.304;2022-07-10T08:56:36;18.00;99.90
7202;DHT22;3642;52.506;13.304;2022-07-10T08:59:05;18.00;99.90
7202;DHT22;3642;52.506;13.304;2022-07-10T09:01:37;18.10;99.90
7202;DHT22;3642;52.506;13.304;2022-07-10T09:04:06;18.10;99.90
7202;DHT22;3642;52.506;13.304;2022-07-10T09:06:35;18.30;99.90
7202;DHT22;3642;52.506;13.304;2022-07-10T09:09:05;18.40;99.70
7202;DHT22;3642;52.506;13.304;2022-07-10T09:11:33;18.60;99.90
7202;DHT22;3642;52.506;13.304;2022-07-10T09:14:04;18.70;99.30
7202;DHT22;3642;52.506;13.304;2022-07-10T09:16:37;18.70;98.20
7202;DHT22;3642;52.506;13.304;2022-07-10T09:19:18;18.70;98.10
7202;DHT22;3642;52.506;13.304;2022-07-10T09:21:48;18.70;97.00
7202;DHT22;3642;52.506;13.304;2022-07-10T09:24:17;18.70;96.90
7202;DHT22;3642;52.506;13.304;2022-07-10T09:26:57;18.60;96.00
7202;DHT22;3642;52.506;13.304;2022-07-10T09:29:29;18.50;96.20
7202;DHT22;3642;52.506;13.304;2022-07-10T09:32:01;18.50;96.40
7202;DHT22;3642;52.506;13.304;2022-07-10T09:34:37;18.60;95.70
7202;DHT22;3642;52.506;13.304;2022-07-10T09:37:23;18.70;96.00
7202;DHT22;3642;52.506;13.304;2022-07-10T09:39:56;18.80;95.90
7202;DHT22;3642;52.506;13.304;2022-07-10T09:42:26;18.80;96.20
7202;DHT22;3642;52.506;13.304;2022-07-10T09:45:16;18.70;95.40
7202;DHT22;3642;52.506;13.304;2022-07-10T09:47:54;18.80;95.20
7202;DHT22;3642;52.506;13.304;2022-07-10T09:50:25;18.90;95.00
7202;DHT22;3642;52.506;13.304;2022-07-10T09:52:54;19.00;94.60
7202;DHT22;3642;52.506;13.304;2022-07-10T09:55:24;18.80;93.50
7202;DHT22;3642;52.506;13.304;2022-07-10T09:57:55;18.80;93.50
7202;DHT22;3642;52.506;13.304;2022-07-10T10:00:25;18.80;93.10
7202;DHT22;3642;52.506;13.304;2022-07-10T10:02:58;18.80;92.70
7202;DHT22;3642;52.506;13.304;2022-07-10T10:05:34;18.80;92.30
7202;DHT22;3642;52.506;13.304;2022-07-10T10:08:17;18.90;92.00
7202;DHT22;3642;52.506;13.304;2022-07-10T10:10:48;18.90;91.40
7202;DHT22;3642;52.506;13.304;2022-07-10T10:13:19;18.90;91.20
7202;DHT22;3642;52.506;13.304;2022-07-10T10:15:48;18.90;91.90
7202;DHT22;3642;52.506;13.304;2022-07-10T10:18:19;19.00;91.30
7202;DHT22;3642;52.506;13.304;2022-07-10T10:20:49;19.00;91.10
7202;DHT22;3642;52.506;13.304;2022-07-10T10:23:18;19.10;91.30
7202;DHT22;3642;52.506;13.304;2022-07-10T10:25:48;19.10;90.40
7202;DHT22;3642;52.506;13.304;2022-07-10T10:28:21;19.10;90.10
7202;DHT22;3642;52.506;13.304;2022-07-10T10:30:54;19.10;90.20
7202;DHT22;3642;52.506;13.304;2022-07-10T10:33:43;19.10;89.20
7202;DHT22;3642;52.506;13.304;2022-07-10T10:36:15;19.00;87.40
7202;DHT22;3642;52.506;13.304;2022-07-10T10:39:09;18.90;86.70
7202;DHT22;3642;52.506;13.304;2022-07-10T10:41:40;18.90;85.70
7202;DHT22;3642;52.506;13.304;2022-07-10T10:44:28;18.80;87.10
7202;DHT22;3642;52.506;13.304;2022-07-10T10:47:01;18.80;87.30
7202;DHT22;3642;52.506;13.304;2022-07-10T10:49:51;18.80;87.70
7202;DHT22;3642;52.506;13.304;2022-07-10T10:52:20;18.80;87.70
7202;DHT22;3642;52.506;13.304;2022-07-10T10:55:13;18.80;87.80
7202;DHT22;3642;52.506;13.304;2022-07-10T10:57:42;18.80;87.40
7202;DHT22;3642;52.506;13.304;2022-07-10T11:00:35;19.00;87.80
7202;DHT22;3642;52.506;13.304;2022-07-10T11:03:15;19.20;87.20
7202;DHT22;3642;52.506;13.304;2022-07-10T11:05:47;19.30;87.50
7202;DHT22;3642;52.506;13.304;2022-07-10T11:08:37;19.30;86.40
7202;DHT22;3642;52.506;13.304;2022-07-10T11:14:14;19.30;86.10
7202;DHT22;3642;52.506;13.304;2022-07-10T11:16:46;19.30;85.70
7202;DHT22;3642;52.506;13.304;2022-07-10T11:19:21;19.30;85.80
7202;DHT22;3642;52.506;13.304;2022-07-10T11:21:59;19.20;86.10
7202;DHT22;3642;52.506;13.304;2022-07-10T11:24:40;19.10;86.10
7202;DHT22;3642;52.506;13.304;2022-07-10T11:27:28;19.00;86.00
7202;DHT22;3642;52.506;13.304;2022-07-10T11:29:58;19.00;85.70
7202;DHT22;3642;52.506;13.304;2022-07-10T11:32:27;19.10;86.20
7202;DHT22;3642;52.506;13.304;2022-07-10T11:34:56;19.30;86.10
7202;DHT22;3642;52.506;13.304;2022-07-10T11:37:26;19.20;85.80
7202;DHT22;3642;52.506;13.304;2022-07-10T11:40:11;19.20;86.60
7202;DHT22;3642;52.506;13.304;2022-07-10T11:42:51;19.40;86.20
7202;DHT22;3642;52.506;13.304;2022-07-10T11:45:26;19.50;86.00
7202;DHT22;3642;52.506;13.304;2022-07-10T11:47:56;19.70;84.90
7202;DHT22;3642;52.506;13.304;2022-07-10T11:50:24;19.70;83.70
7202;DHT22;3642;52.506;13.304;2022-07-10T11:52:55;19.60;82.90
7202;DHT22;3642;52.506;13.304;2022-07-10T11:55:23;19.50;82.80
7202;DHT22;3642;52.506;13.304;2022-07-10T11:57:56;19.40;83.80
7202;DHT22;3642;52.506;13.304;2022-07-10T12:00:25;19.40;84.40
7202;DHT22;3642;52.506;13.304;2022-07-10T12:02:54;19.40;84.80
7202;DHT22;3642;52.506;13.304;2022-07-10T12:05:33;19.40;83.90
7202;DHT22;3642;52.506;13.304;2022-07-10T12:08:04;19.60;83.70
7202;DHT22;3642;52.506;13.304;2022-07-10T12:10:35;19.60;83.50
7202;DHT22;3642;52.506;13.304;2022-07-10T12:13:05;19.80;83.50
7202;DHT22;3642;52.506;13.304;2022-07-10T12:15:34;19.80;81.40
7202;DHT22;3642;52.506;13.304;2022-07-10T12:18:06;19.80;81.30
7202;DHT22;3642;52.506;13.304;2022-07-10T12:20:35;19.70;80.30
7202;DHT22;3642;52.506;13.304;2022-07-10T12:23:05;19.60;80.90
7202;DHT22;3642;52.506;13.304;2022-07-10T12:25:34;19.50;80.90
7202;DHT22;3642;52.506;13.304;2022-07-10T12:28:05;19.50;80.70
7202;DHT22;3642;52.506;13.304;2022-07-10T12:30:38;19.50;80.40
7202;DHT22;3642;52.506;13.304;2022-07-10T12:33:11;19.60;79.90
7202;DHT22;3642;52.506;13.304;2022-07-10T12:35:47;19.60;80.80
7202;DHT22;3642;52.506;13.304;2022-07-10T12:38:22;19.60;80.40
7202;DHT22;3642;52.506;13.304;2022-07-10T12:40:51;19.80;80.90
7202;DHT22;3642;52.506;13.304;2022-07-10T12:43:35;19.90;80.00
7202;DHT22;3642;52.506;13.304;2022-07-10T12:46:13;19.80;79.10
7202;DHT22;3642;52.506;13.304;2022-07-10T12:48:43;19.80;79.70
7202;DHT22;3642;52.506;13.304;2022-07-10T12:51:25;19.90;79.70
7202;DHT22;3642;52.506;13.304;2022-07-10T12:54:32;20.10;79.80
7202;DHT22;3642;52.506;13.304;2022-07-10T12:57:03;20.30;79.80
7202;DHT22;3642;52.506;13.304;2022-07-10T12:59:33;20.40;78.50
7202;DHT22;3642;52.506;13.304;2022-07-10T13:02:15;20.50;78.20
7202;DHT22;3642;52.506;13.304;2022-07-10T13:04:54;20.50;77.70
7202;DHT22;3642;52.506;13.304;2022-07-10T13:07:31;20.40;78.20
7202;DHT22;3642;52.506;13.304;2022-07-10T13:10:03;20.50;78.10
7202;DHT22;3642;52.506;13.304;2022-07-10T13:12:31;20.60;77.60
7202;DHT22;3642;52.506;13.304;2022-07-10T13:14:59;20.40;77.70
7202;DHT22;3642;52.506;13.304;2022-07-10T13:17:28;20.30;77.90
7202;DHT22;3642;52.506;13.304;2022-07-10T13:19:56;20.30;77.60
7202;DHT22;3642;52.506;13.304;2022-07-10T13:22:25;20.30;78.00
7202;DHT22;3642;52.506;13.304;2022-07-10T13:24:53;20.40;78.00
7202;DHT22;3642;52.506;13.304;2022-07-10T13:27:23;20.60;78.50
7202;DHT22;3642;52.506;13.304;2022-07-10T13:29:51;20.70;77.30
7202;DHT22;3642;52.506;13.304;2022-07-10T13:32:19;20.70;77.20
7202;DHT22;3642;52.506;13.304;2022-07-10T13:34:55;20.70;77.10
7202;DHT22;3642;52.506;13.304;2022-07-10T13:37:23;20.70;76.90
7202;DHT22;3642;52.506;13.304;2022-07-10T13:39:51;20.70;76.40
7202;DHT22;3642;52.506;13.304;2022-07-10T13:42:21;20.60;76.20
7202;DHT22;3642;52.506;13.304;2022-07-10T13:44:51;20.70;76.30
7202;DHT22;3642;52.506;13.304;2022-07-10T13:47:20;20.70;75.50
7202;DHT22;3642;52.506;13.304;2022-07-10T13:49:48;20.70;75.10
7202;DHT22;3642;52.506;13.304;2022-07-10T13:52:16;20.60;74.40
7202;DHT22;3642;52.506;13.304;2022-07-10T13:54:44;20.70;74.90
7202;DHT22;3642;52.506;13.304;2022-07-10T13:57:13;20.90;74.60
7202;DHT22;3642;52.506;13.304;2022-07-10T13:59:42;21.10;74.10
7202;DHT22;3642;52.506;13.304;2022-07-10T14:02:10;21.20;73.40
7202;DHT22;3642;52.506;13.304;2022-07-10T14:04:42;21.20;73.00
7202;DHT22;3642;52.506;13.304;2022-07-10T14:07:11;21.30;72.90
7202;DHT22;3642;52.506;13.304;2022-07-10T14:09:39;21.20;72.30
7202;DHT22;3642;52.506;13.304;2022-07-10T14:12:08;21.00;72.10
7202;DHT22;3642;52.506;13.304;2022-07-10T14:14:36;20.80;72.80
7202;DHT22;3642;52.506;13.304;2022-07-10T14:17:05;20.90;73.50
7202;DHT22;3642;52.506;13.304;2022-07-10T14:19:37;21.00;73.60
7202;DHT22;3642;52.506;13.304;2022-07-10T14:22:05;21.10;73.10
7202;DHT22;3642;52.506;13.304;2022-07-10T14:24:33;21.30;72.70
7202;DHT22;3642;52.506;13.304;2022-07-10T14:27:06;21.20;71.60
7202;DHT22;3642;52.506;13.304;2022-07-10T14:29:34;21.00;71.30
7202;DHT22;3642;52.506;13.304;2022-07-10T14:32:03;20.80;72.20
7202;DHT22;3642;52.506;13.304;2022-07-10T14:34:32;20.80;72.70
7202;DHT22;3642;52.506;13.304;2022-07-10T14:37:01;20.90;71.90
7202;DHT22;3642;52.506;13.304;2022-07-10T14:39:30;20.90;72.40
7202;DHT22;3642;52.506;13.304;2022-07-10T14:41:58;21.10;71.90
7202;DHT22;3642;52.506;13.304;2022-07-10T14:44:26;21.40;70.80
7202;DHT22;3642;52.506;13.304;2022-07-10T14:46:55;21.60;70.20
7202;DHT22;3642;52.506;13.304;2022-07-10T14:49:23;21.80;69.70
7202;DHT22;3642;52.506;13.304;2022-07-10T14:51:53;21.80;69.30
7202;DHT22;3642;52.506;13.304;2022-07-10T14:54:22;21.80;69.80
7202;DHT22;3642;52.506;13.304;2022-07-10T14:56:51;21.80;69.80
7202;DHT22;3642;52.506;13.304;2022-07-10T14:59:29;21.70;70.10
7202;DHT22;3642;52.506;13.304;2022-07-10T15:01:58;21.70;69.70
7202;DHT22;3642;52.506;13.304;2022-07-10T15:04:26;21.80;70.10
7202;DHT22;3642;52.506;13.304;2022-07-10T15:06:56;21.70;69.40
7202;DHT22;3642;52.506;13.304;2022-07-10T15:09:25;21.50;69.50
7202;DHT22;3642;52.506;13.304;2022-07-10T15:11:56;21.80;69.30
7202;DHT22;3642;52.506;13.304;2022-07-10T15:14:24;22.00;68.70
7202;DHT22;3642;52.506;13.304;2022-07-10T15:16:54;22.40;68.40
7202;DHT22;3642;52.506;13.304;2022-07-10T15:19:23;22.40;67.30
7202;DHT22;3642;52.506;13.304;2022-07-10T15:21:55;22.30;66.10
7202;DHT22;3642;52.506;13.304;2022-07-10T15:24:23;21.80;66.40
7202;DHT22;3642;52.506;13.304;2022-07-10T15:26:52;21.50;66.90
7202;DHT22;3642;52.506;13.304;2022-07-10T15:29:20;21.40;67.30
7202;DHT22;3642;52.506;13.304;2022-07-10T15:31:52;21.30;67.00
7202;DHT22;3642;52.506;13.304;2022-07-10T15:34:25;21.20;67.00
7202;DHT22;3642;52.506;13.304;2022-07-10T15:36:53;21.20;66.90
7202;DHT22;3642;52.506;13.304;2022-07-10T15:39:23;21.20;67.10
7202;DHT22;3642;52.506;13.304;2022-07-10T15:41:52;21.30;67.20
7202;DHT22;3642;52.506;13.304;2022-07-10T15:44:23;21.60;67.20
7202;DHT22;3642;52.506;13.304;2022-07-10T15:46:52;21.80;66.70
7202;DHT22;3642;52.506;13.304;2022-07-10T15:49:20;22.10;66.30
7202;DHT22;3642;52.506;13.304;2022-07-10T15:51:49;22.10;65.80
7202;DHT22;3642;52.506;13.304;2022-07-10T15:54:17;22.00;65.90
7202;DHT22;3642;52.506;13.304;2022-07-10T15:56:47;21.90;65.50
7202;DHT22;3642;52.506;13.304;2022-07-10T15:59:16;22.10;65.50
7202;DHT22;3642;52.506;13.304;2022-07-10T16:01:46;22.20;65.30
7202;DHT22;3642;52.506;13.304;2022-07-10T16:04:14;22.30;65.50
7202;DHT22;3642;52.506;13.304;2022-07-10T16:06:42;22.40;65.40
7202;DHT22;3642;52.506;13.304;2022-07-10T16:09:11;24.40;63.40